sensor_id;sensor_type;location;lat;lon;timestamp;temperature;humidity
6439;DHT22;3252;52.540;13.290;2022-07-29T00:01:14;15.90;97.70
6439;DHT22;3252;52.540;13.290;2022-07-29T00:03:16;15.90;98.00
6439;DHT22;3252;52.540;13.290;2022-07-29T00:05:18;15.90;98.10
6439;DHT22;3252;52.540;13.290;2022-07-29T00:07:20;15.80;98.20
6439;DHT22;3252;52.540;13.290;2022-07-29T00:09:22;15.80;98.50
6439;DHT22;3252;52.540;13.290;2022-07-29T00:11:24;15.80;98.60
6439;DHT22;3252;52.540;13.290;2022-07-29T00:13:28;15.70;99.00
6439;DHT22;3252;52.540;13.290;2022-07-29T00:15:30;15.70;99.10
6439;DHT22;3252;52.540;13.290;2022-07-29T00:17:32;15.70;99.20
6439;DHT22;3252;52.540;13.290;2022-07-29T00:19:34;15.70;99.30
6439;DHT22;3252;52.540;13.290;2022-07-29T00:21:36;15.70;99.50
6439;DHT22;3252;52.540;13.290;2022-07-29T00:23:38;15.70;99.50
6439;DHT22;3252;52.540;13.290;2022-07-29T00:25:40;15.60;99.60
6439;DHT22;3252;52.540;13.290;2022-07-29T00:27:42;15.60;99.80
6439;DHT22;3252;52.540;13.290;2022-07-29T00:29:47;15.60;99.90
6439;DHT22;3252;52.540;13.290;2022-07-29T00:31:49;15.60;99.90
6439;DHT22;3252;52.540;13.290;2022-07-29T00:33:51;15.60;99.90
6439;DHT22;3252;52.540;13.290;2022-07-29T00:35:53;15.60;99.90
6439;DHT22;3252;52.540;13.290;2022-07-29T00:37:54;15.60;99.90
6439;DHT22;3252;52.540;13.290;2022-07-29T00:39:56;15.50;99.90
6439;DHT22;3252;52.540;13.290;2022-07-29T00:41:58;15.60;99.90
6439;DHT22;3252;52.540;13.290;2022-07-29T00:44:00;15.60;99.90
6439;DHT22;3252;52.540;13.290;2022-07-29T00:46:03;15.50;99.90
6439;DHT22;3252;52.540;13.290;2022-07-29T00:48:06;15.50;99.90
6439;DHT22;3252;52.540;13.290;2022-07-29T00:50:10;15.50;99.90
6439;DHT22;3252;52.540;13.290;2022-07-29T00:52:13;15.50;99.90
6439;DHT22;3252;52.540;13.290;2022-07-29T00:54:15;15.40;99.90
6439;DHT22;3252;52.540;13.290;2022-07-29T00:56:17;15.40;99.90
6439;DHT22;3252;52.540;13.290;2022-07-29T00:58:19;15.30;99.90
6439;DHT22;3252;52.540;13.290;2022-07-29T01:00:23;15.30;99.90
6439;DHT22;3252;52.540;13.290;2022-07-29T01:02:27;15.30;99.90
6439;DHT22;3252;52.540;13.290;2022-07-29T01:04:29;15.30;99.90
6439;DHT22;3252;52.540;13.290;2022-07-29T01:06:32;15.20;99.90
6439;DHT22;3252;52.540;13.290;2022-07-29T01:08:36;15.20;99.90
6439;DHT22;3252;52.540;13.290;2022-07-29T01:10:38;15.20;99.90
6439;DHT22;3252;52.540;13.290;2022-07-29T01:12:44;15.20;99.90
6439;DHT22;3252;52.540;13.290;2022-07-29T01:14:48;15.20;99.90
6439;DHT22;3252;52.540;13.290;2022-07-29T01:16:54;15.10;99.90
6439;DHT22;3252;52.540;13.290;2022-07-29T01:19:10;15.10;99.90
6439;DHT22;3252;52.540;13.290;2022-07-29T01:21:27;15.10;99.90
6439;DHT22;3252;52.540;13.290;2022-07-29T01:26:33;15.10;99.90
6439;DHT22;3252;52.540;13.290;2022-07-29T01:28:46;15.10;99.90
6439;DHT22;3252;52.540;13.290;2022-07-29T01:30:51;15.10;99.90
6439;DHT22;3252;52.540;13.290;2022-07-29T01:33:00;15.10;99.90
6439;DHT22;3252;52.540;13.290;2022-07-29T01:35:06;15.10;99.90
6439;DHT22;3252;52.540;13.290;2022-07-29T01:37:15;15.10;99.90
6439;DHT22;3252;52.540;13.290;2022-07-29T01:39:23;15.10;99.90
6439;DHT22;3252;52.540;13.290;2022-07-29T01:41:29;15.10;99.90
6439;DHT22;3252;52.540;13.290;2022-07-29T01:43:51;15.00;99.90
6439;DHT22;3252;52.540;13.290;2022-07-29T01:45:59;15.00;99.90
6439;DHT22;3252;52.540;13.290;2022-07-29T01:48:06;15.00;99.90
6439;DHT22;3252;52.540;13.290;2022-07-29T01:50:16;14.90;99.90
6439;DHT22;3252;52.540;13.290;2022-07-29T01:52:23;14.90;99.90
6439;DHT22;3252;52.540;13.290;2022-07-29T01:54:34;14.90;99.90
6439;DHT22;3252;52.540;13.290;2022-07-29T01:56:38;15.00;99.90
6439;DHT22;3252;52.540;13.290;2022-07-29T01:58:41;15.00;99.90
6439;DHT22;3252;52.540;13.290;2022-07-29T02:00:47;14.90;99.90
6439;DHT22;3252;52.540;13.290;2022-07-29T02:02:50;14.90;99.90
6439;DHT22;3252;52.540;13.290;2022-07-29T02:04:54;14.90;99.90
6439;DHT22;3252;52.540;13.290;2022-07-29T02:07:01;14.90;99.90
6439;DHT22;3252;52.540;13.290;2022-07-29T02:09:04;14.90;99.90
6439;DHT22;3252;52.540;13.290;2022-07-29T02:11:08;14.90;99.90
6439;DHT22;3252;52.540;13.290;2022-07-29T02:13:11;14.90;99.90
6439;DHT22;3252;52.540;13.290;2022-07-29T02:15:15;14.80;99.90
6439;DHT22;3252;52.540;13.290;2022-07-29T02:17:22;14.80;99.90
6439;DHT22;3252;52.540;13.290;2022-07-29T02:19:27;14.80;99.90
6439;DHT22;3252;52.540;13.290;2022-07-29T02:21:30;14.80;99.90
6439;DHT22;3252;52.540;13.290;2022-07-29T02:23:35;14.80;99.90
6439;DHT22;3252;52.540;13.290;2022-07-29T02:25:41;14.80;99.90
6439;DHT22;3252;52.540;13.290;2022-07-29T02:27:44;14.80;99.90
6439;DHT22;3252;52.540;13.290;2022-07-29T02:29:49;14.70;99.90
6439;DHT22;3252;52.540;13.290;2022-07-29T02:31:52;14.70;99.90
6439;DHT22;3252;52.540;13.290;2022-07-29T02:33:57;14.70;99.90
6439;DHT22;3252;52.540;13.290;2022-07-29T02:36:02;14.70;99.90
6439;DHT22;3252;52.540;13.290;2022-07-29T02:38:04;14.70;99.90
6439;DHT22;3252;52.540;13.290;2022-07-29T02:40:24;14.70;99.90
6439;DHT22;3252;52.540;13.290;2022-07-29T02:42:27;14.70;99.90
6439;DHT22;3252;52.540;13.290;2022-07-29T02:44:30;14.70;99.90
6439;DHT22;3252;52.540;13.290;2022-07-29T02:46:35;14.70;99.90
6439;DHT22;3252;52.540;13.290;2022-07-29T02:48:41;14.70;99.90
6439;DHT22;3252;52.540;13.290;2022-07-29T02:50:48;14.70;99.90
6439;DHT22;3252;52.540;13.290;2022-07-29T02:52:56;14.70;99.90
6439;DHT22;3252;52.540;13.290;2022-07-29T02:55:02;14.70;99.90
6439;DHT22;3252;52.540;13.290;2022-07-29T02:57:09;14.70;99.90
6439;DHT22;3252;52.540;13.290;2022-07-29T02:59:13;14.70;99.90
6439;DHT22;3252;52.540;13.290;2022-07-29T03:01:21;14.70;99.90
6439;DHT22;3252;52.540;13.290;2022-07-29T03:03:26;14.70;99.90
6439;DHT22;3252;52.540;13.290;2022-07-29T03:05:31;14.80;99.90
6439;DHT22;3252;52.540;13.290;2022-07-29T03:07:35;14.80;99.90
6439;DHT22;3252;52.540;13.290;2022-07-29T03:09:38;14.80;99.90
6439;DHT22;3252;52.540;13.290;2022-07-29T03:11:42;14.70;99.90
6439;DHT22;3252;52.540;13.290;2022-07-29T03:13:45;14.80;99.90
6439;DHT22;3252;52.540;13.290;2022-07-29T03:15:47;14.70;99.90
6439;DHT22;3252;52.540;13.290;2022-07-29T03:17:50;14.70;99.90
6439;DHT22;3252;52.540;13.290;2022-07-29T03:19:53;14.80;99.90
6439;DHT22;3252;52.540;13.290;2022-07-29T03:21:56;14.80;99.90
6439;DHT22;3252;52.540;13.290;2022-07-29T03:24:00;14.80;99.90
6439;DHT22;3252;52.540;13.290;2022-07-29T03:26:02;14.80;99.90
6439;DHT22;3252;52.540;13.290;2022-07-29T03:28:04;14.70;99.90
6439;DHT22;3252;52.540;13.290;2022-07-29T03:30:07;14.80;99.90
6439;DHT22;3252;52.540;13.290;2022-07-29T03:32:09;14.80;99.90
6439;DHT22;3252;52.540;13.290;2022-07-29T03:34:11;14.80;99.90
6439;DHT22;3252;52.540;13.290;2022-07-29T03:36:14;14.90;99.90
6439;DHT22;3252;52.540;13.290;2022-07-29T03:38:16;14.90;99.90
6439;DHT22;3252;52.540;13.290;2022-07-29T03:40:22;14.90;99.90
6439;DHT22;3252;52.540;13.290;2022-07-29T03:42:32;14.90;99.90
6439;DHT22;3252;52.540;13.290;2022-07-29T03:44:35;14.90;99.90
6439;DHT22;3252;52.540;13.290;2022-07-29T03:46:39;15.00;99.90
6439;DHT22;3252;52.540;13.290;2022-07-29T03:48:43;15.00;99.90
6439;DHT22;3252;52.540;13.290;2022-07-29T03:50:47;15.00;99.90
6439;DHT22;3252;52.540;13.290;2022-07-29T03:52:49;15.10;99.90
6439;DHT22;3252;52.540;13.290;2022-07-29T03:54:52;15.10;99.90
6439;DHT22;3252;52.540;13.290;2022-07-29T03:56:58;15.10;99.90
6439;DHT22;3252;52.540;13.290;2022-07-29T03:59:01;15.10;99.90
6439;DHT22;3252;52.540;13.290;2022-07-29T04:01:04;15.10;99.90
6439;DHT22;3252;52.540;13.290;2022-07-29T04:03:06;15.10;99.90
6439;DHT22;3252;52.540;13.290;2022-07-29T04:05:12;15.10;99.90
6439;DHT22;3252;52.540;13.290;2022-07-29T04:07:15;15.10;99.90
6439;DHT22;3252;52.540;13.290;2022-07-29T04:09:17;15.10;99.90
6439;DHT22;3252;52.540;13.290;2022-07-29T04:11:19;15.10;99.90
6439;DHT22;3252;52.540;13.290;2022-07-29T04:13:22;15.10;99.90
6439;DHT22;3252;52.540;13.290;2022-07-29T04:15:24;15.10;99.90
6439;DHT22;3252;52.540;13.290;2022-07-29T04:17:28;15.10;99.90
6439;DHT22;3252;52.540;13.290;2022-07-29T04:19:30;15.10;99.90
6439;DHT22;3252;52.540;13.290;2022-07-29T04:21:37;15.20;99.90
6439;DHT22;3252;52.540;13.290;2022-07-29T04:23:39;15.20;99.90
6439;DHT22;3252;52.540;13.290;2022-07-29T04:25:42;15.20;99.90
6439;DHT22;3252;52.540;13.290;2022-07-29T04:27:44;15.30;99.90
6439;DHT22;3252;52.540;13.290;2022-07-29T04:30:02;15.30;99.90
6439;DHT22;3252;52.540;13.290;2022-07-29T04:32:04;15.30;99.90
6439;DHT22;3252;52.540;13.290;2022-07-29T04:34:07;15.30;99.90
6439;DHT22;3252;52.540;13.290;2022-07-29T04:36:09;15.30;99.90
6439;DHT22;3252;52.540;13.290;2022-07-29T04:38:14;15.40;99.90
6439;DHT22;3252;52.540;13.290;2022-07-29T04:40:16;15.40;99.90
6439;DHT22;3252;52.540;13.290;2022-07-29T04:42:18;15.40;99.90
6439;DHT22;3252;52.540;13.290;2022-07-29T04:44:20;15.50;99.90
6439;DHT22;3252;52.540;13.290;2022-07-29T04:46:23;15.50;99.90
6439;DHT22;3252;52.540;13.290;2022-07-29T04:48:25;15.50;99.90
6439;DHT22;3252;52.540;13.290;2022-07-29T04:50:27;15.50;99.90
6439;DHT22;3252;52.540;13.290;2022-07-29T04:52:29;15.60;99.90
6439;DHT22;3252;52.540;13.290;2022-07-29T04:54:32;15.60;99.90
6439;DHT22;3252;52.540;13.290;2022-07-29T04:56:34;15.60;99.90
6439;DHT22;3252;52.540;13.290;2022-07-29T04:58:36;15.70;99.90
6439;DHT22;3252;52.540;13.290;2022-07-29T05:00:39;15.70;99.90
6439;DHT22;3252;52.540;13.290;2022-07-29T05:02:42;15.80;99.90
6439;DHT22;3252;52.540;13.290;2022-07-29T05:04:44;15.80;99.90
6439;DHT22;3252;52.540;13.290;2022-07-29T05:06:46;15.90;99.90
6439;DHT22;3252;52.540;13.290;2022-07-29T05:08:48;15.90;99.90
6439;DHT22;3252;52.540;13.290;2022-07-29T05:10:51;16.00;99.90
6439;DHT22;3252;52.540;13.290;2022-07-29T05:12:53;16.10;99.90
6439;DHT22;3252;52.540;13.290;2022-07-29T05:14:54;16.10;99.90
6439;DHT22;3252;52.540;13.290;2022-07-29T05:16:57;16.10;99.90
6439;DHT22;3252;52.540;13.290;2022-07-29T05:19:00;16.20;99.90
6439;DHT22;3252;52.540;13.290;2022-07-29T05:21:02;16.20;99.90
6439;DHT22;3252;52.540;13.290;2022-07-29T05:23:04;16.30;99.90
6439;DHT22;3252;52.540;13.290;2022-07-29T05:25:07;16.30;99.90
6439;DHT22;3252;52.540;13.290;2022-07-29T05:27:09;16.30;99.90
6439;DHT22;3252;52.540;13.290;2022-07-29T05:29:11;16.30;99.90
6439;DHT22;3252;52.540;13.290;2022-07-29T05:31:13;16.30;99.90
6439;DHT22;3252;52.540;13.290;2022-07-29T05:33:16;16.40;99.90
6439;DHT22;3252;52.540;13.290;2022-07-29T05:35:19;16.50;99.90
6439;DHT22;3252;52.540;13.290;2022-07-29T05:37:22;16.50;99.90
6439;DHT22;3252;52.540;13.290;2022-07-29T05:39:24;16.60;99.90
6439;DHT22;3252;52.540;13.290;2022-07-29T05:41:26;16.60;99.90
6439;DHT22;3252;52.540;13.290;2022-07-29T05:43:29;16.60;99.90
6439;DHT22;3252;52.540;13.290;2022-07-29T05:45:31;16.60;99.90
6439;DHT22;3252;52.540;13.290;2022-07-29T05:47:33;16.60;99.90
6439;DHT22;3252;52.540;13.290;2022-07-29T05:49:35;16.70;99.90
6439;DHT22;3252;52.540;13.290;2022-07-29T05:51:39;16.70;99.90
6439;DHT22;3252;52.540;13.290;2022-07-29T05:53:41;16.80;99.90
6439;DHT22;3252;52.540;13.290;2022-07-29T05:55:42;16.80;99.90
6439;DHT22;3252;52.540;13.290;2022-07-29T05:57:44;16.90;99.90
6439;DHT22;3252;52.540;13.290;2022-07-29T05:59:47;16.90;99.90
6439;DHT22;3252;52.540;13.290;2022-07-29T06:01:49;16.90;99.90
6439;DHT22;3252;52.540;13.290;2022-07-29T06:03:52;17.00;99.90
6439;DHT22;3252;52.540;13.290;2022-07-29T06:05:54;17.00;99.70
6439;DHT22;3252;52.540;13.290;2022-07-29T06:07:57;17.10;99.50
6439;DHT22;3252;52.540;13.290;2022-07-29T06:09:59;17.20;99.70
6439;DHT22;3252;52.540;13.290;2022-07-29T06:12:02;17.20;99.60
6439;DHT22;3252;52.540;13.290;2022-07-29T06:14:04;17.30;99.60
6439;DHT22;3252;52.540;13.290;2022-07-29T06:16:06;17.30;99.50
6439;DHT22;3252;52.540;13.290;2022-07-29T06:18:09;17.40;99.50
6439;DHT22;3252;52.540;13.290;2022-07-29T06:20:11;17.50;99.20
6439;DHT22;3252;52.540;13.290;2022-07-29T06:22:15;17.60;99.10
6439;DHT22;3252;52.540;13.290;2022-07-29T06:24:18;17.60;98.80
6439;DHT22;3252;52.540;13.290;2022-07-29T06:26:20;17.70;98.80
6439;DHT22;3252;52.540;13.290;2022-07-29T06:28:22;17.70;98.60
6439;DHT22;3252;52.540;13.290;2022-07-29T06:30:24;17.80;98.10
6439;DHT22;3252;52.540;13.290;2022-07-29T06:32:27;17.80;98.00
6439;DHT22;3252;52.540;13.290;2022-07-29T06:34:28;17.80;98.20
6439;DHT22;3252;52.540;13.290;2022-07-29T06:36:33;17.80;98.00
6439;DHT22;3252;52.540;13.290;2022-07-29T06:38:36;17.90;98.10
6439;DHT22;3252;52.540;13.290;2022-07-29T06:40:42;17.90;97.60
6439;DHT22;3252;52.540;13.290;2022-07-29T06:43:02;18.00;97.50
6439;DHT22;3252;52.540;13.290;2022-07-29T06:45:05;18.00;97.80
6439;DHT22;3252;52.540;13.290;2022-07-29T06:47:07;18.00;97.20
6439;DHT22;3252;52.540;13.290;2022-07-29T06:49:09;18.00;97.10
6439;DHT22;3252;52.540;13.290;2022-07-29T06:51:13;18.10;97.20
6439;DHT22;3252;52.540;13.290;2022-07-29T06:53:15;18.10;97.30
6439;DHT22;3252;52.540;13.290;2022-07-29T06:55:17;18.20;97.10
6439;DHT22;3252;52.540;13.290;2022-07-29T06:57:21;18.20;96.10
6439;DHT22;3252;52.540;13.290;2022-07-29T06:59:23;18.20;96.70
6439;DHT22;3252;52.540;13.290;2022-07-29T07:01:25;18.30;97.00
6439;DHT22;3252;52.540;13.290;2022-07-29T07:03:27;18.30;96.60
6439;DHT22;3252;52.540;13.290;2022-07-29T07:05:29;18.40;96.40
6439;DHT22;3252;52.540;13.290;2022-07-29T07:07:31;18.50;96.30
6439;DHT22;3252;52.540;13.290;2022-07-29T07:09:33;18.60;96.00
6439;DHT22;3252;52.540;13.290;2022-07-29T07:11:35;18.70;95.90
6439;DHT22;3252;52.540;13.290;2022-07-29T07:13:38;18.70;95.50
6439;DHT22;3252;52.540;13.290;2022-07-29T07:15:40;18.80;95.30
6439;DHT22;3252;52.540;13.290;2022-07-29T07:17:42;18.90;95.20
6439;DHT22;3252;52.540;13.290;2022-07-29T07:19:44;18.90;94.90
6439;DHT22;3252;52.540;13.290;2022-07-29T07:21:47;18.90;94.90
6439;DHT22;3252;52.540;13.290;2022-07-29T07:23:49;19.00;94.80
6439;DHT22;3252;52.540;13.290;2022-07-29T07:25:52;19.10;94.30
6439;DHT22;3252;52.540;13.290;2022-07-29T07:27:54;19.20;94.30
6439;DHT22;3252;52.540;13.290;2022-07-29T07:29:58;19.20;94.60
6439;DHT22;3252;52.540;13.290;2022-07-29T07:32:00;19.30;94.30
6439;DHT22;3252;52.540;13.290;2022-07-29T07:34:01;19.40;93.80
6439;DHT22;3252;52.540;13.290;2022-07-29T07:36:04;19.50;93.20
6439;DHT22;3252;52.540;13.290;2022-07-29T07:38:06;19.60;92.90
6439;DHT22;3252;52.540;13.290;2022-07-29T07:40:09;19.70;92.20
6439;DHT22;3252;52.540;13.290;2022-07-29T07:42:12;19.80;91.60
6439;DHT22;3252;52.540;13.290;2022-07-29T07:44:14;19.90;91.30
6439;DHT22;3252;52.540;13.290;2022-07-29T07:46:17;20.00;91.50
6439;DHT22;3252;52.540;13.290;2022-07-29T07:48:19;20.10;90.80
6439;DHT22;3252;52.540;13.290;2022-07-29T07:50:21;20.20;90.70
6439;DHT22;3252;52.540;13.290;2022-07-29T07:52:23;20.20;90.60
6439;DHT22;3252;52.540;13.290;2022-07-29T07:54:25;20.30;89.20
6439;DHT22;3252;52.540;13.290;2022-07-29T07:56:27;20.40;90.10
6439;DHT22;3252;52.540;13.290;2022-07-29T07:58:29;20.60;90.10
6439;DHT22;3252;52.540;13.290;2022-07-29T08:00:31;20.70;89.70
6439;DHT22;3252;52.540;13.290;2022-07-29T08:02:35;20.90;86.60
6439;DHT22;3252;52.540;13.290;2022-07-29T08:04:37;21.00;83.50
6439;DHT22;3252;52.540;13.290;2022-07-29T08:06:40;21.00;80.90
6439;DHT22;3252;52.540;13.290;2022-07-29T08:08:43;21.10;79.60
6439;DHT22;3252;52.540;13.290;2022-07-29T08:10:45;21.10;78.90
6439;DHT22;3252;52.540;13.290;2022-07-29T08:12:57;21.20;77.70
6439;DHT22;3252;52.540;13.290;2022-07-29T08:14:59;21.30;78.20
6439;DHT22;3252;52.540;13.290;2022-07-29T08:17:01;21.30;77.70
6439;DHT22;3252;52.540;13.290;2022-07-29T08:19:04;21.40;78.10
6439;DHT22;3252;52.540;13.290;2022-07-29T08:21:06;21.50;78.30
6439;DHT22;3252;52.540;13.290;2022-07-29T08:23:08;21.60;73.90
6439;DHT22;3252;52.540;13.290;2022-07-29T08:25:10;21.70;69.80
6439;DHT22;3252;52.540;13.290;2022-07-29T08:27:13;21.80;69.10
6439;DHT22;3252;52.540;13.290;2022-07-29T08:29:15;21.90;69.00
6439;DHT22;3252;52.540;13.290;2022-07-29T08:31:18;22.00;69.40
6439;DHT22;3252;52.540;13.290;2022-07-29T08:33:20;22.10;68.20
6439;DHT22;3252;52.540;13.290;2022-07-29T08:35:24;22.20;67.20
6439;DHT22;3252;52.540;13.290;2022-07-29T08:37:26;22.20;66.30
6439;DHT22;3252;52.540;13.290;2022-07-29T08:39:28;22.30;65.80
6439;DHT22;3252;52.540;13.290;2022-07-29T08:41:30;22.50;65.70
6439;DHT22;3252;52.540;13.290;2022-07-29T08:43:32;22.60;63.60
6439;DHT22;3252;52.540;13.290;2022-07-29T08:45:42;22.70;62.80
6439;DHT22;3252;52.540;13.290;2022-07-29T08:47:45;22.70;61.70
6439;DHT22;3252;52.540;13.290;2022-07-29T08:49:47;22.80;60.00
6439;DHT22;3252;52.540;13.290;2022-07-29T08:51:51;23.00;59.30
6439;DHT22;3252;52.540;13.290;2022-07-29T08:53:54;23.10;58.60
6439;DHT22;3252;52.540;13.290;2022-07-29T08:55:57;23.20;57.90
6439;DHT22;3252;52.540;13.290;2022-07-29T08:58:00;23.30;57.30
6439;DHT22;3252;52.540;13.290;2022-07-29T09:00:05;23.40;57.10
6439;DHT22;3252;52.540;13.290;2022-07-29T09:02:12;23.50;56.70
6439;DHT22;3252;52.540;13.290;2022-07-29T09:04:18;23.60;55.90
6439;DHT22;3252;52.540;13.290;2022-07-29T09:06:21;23.60;55.10
6439;DHT22;3252;52.540;13.290;2022-07-29T09:08:25;23.60;53.60
6439;DHT22;3252;52.540;13.290;2022-07-29T09:10:27;23.70;53.80
6439;DHT22;3252;52.540;13.290;2022-07-29T09:12:30;23.80;54.00
6439;DHT22;3252;52.540;13.290;2022-07-29T09:14:32;23.90;53.50
6439;DHT22;3252;52.540;13.290;2022-07-29T09:16:49;24.20;52.80
6439;DHT22;3252;52.540;13.290;2022-07-29T09:18:51;24.60;52.50
6439;DHT22;3252;52.540;13.290;2022-07-29T09:20:53;24.60;52.70
6439;DHT22;3252;52.540;13.290;2022-07-29T09:23:13;24.60;52.50
6439;DHT22;3252;52.540;13.290;2022-07-29T09:25:33;24.70;51.70
6439;DHT22;3252;52.540;13.290;2022-07-29T09:27:35;24.80;51.80
6439;DHT22;3252;52.540;13.290;2022-07-29T09:29:37;24.80;52.10
6439;DHT22;3252;52.540;13.290;2022-07-29T09:31:41;25.00;50.50
6439;DHT22;3252;52.540;13.290;2022-07-29T09:33:43;25.30;50.50
6439;DHT22;3252;52.540;13.290;2022-07-29T09:35:45;25.30;50.00
6439;DHT22;3252;52.540;13.290;2022-07-29T09:37:47;25.10;50.00
6439;DHT22;3252;52.540;13.290;2022-07-29T09:39:49;24.90;49.60
6439;DHT22;3252;52.540;13.290;2022-07-29T09:41:55;24.80;49.60
6439;DHT22;3252;52.540;13.290;2022-07-29T09:43:59;24.80;49.80
6439;DHT22;3252;52.540;13.290;2022-07-29T09:46:10;24.80;49.80
6439;DHT22;3252;52.540;13.290;2022-07-29T09:48:14;24.70;49.40
6439;DHT22;3252;52.540;13.290;2022-07-29T09:50:17;24.70;50.00
6439;DHT22;3252;52.540;13.290;2022-07-29T09:52:24;24.70;50.10
6439;DHT22;3252;52.540;13.290;2022-07-29T09:54:27;24.70;50.30
6439;DHT22;3252;52.540;13.290;2022-07-29T09:56:38;24.60;49.60
6439;DHT22;3252;52.540;13.290;2022-07-29T09:58:42;24.60;48.90
6439;DHT22;3252;52.540;13.290;2022-07-29T10:00:45;24.50;47.70
6439;DHT22;3252;52.540;13.290;2022-07-29T10:02:47;24.50;47.40
6439;DHT22;3252;52.540;13.290;2022-07-29T10:04:49;24.50;47.50
6439;DHT22;3252;52.540;13.290;2022-07-29T10:06:58;24.60;47.50
6439;DHT22;3252;52.540;13.290;2022-07-29T10:09:09;24.60;46.80
6439;DHT22;3252;52.540;13.290;2022-07-29T10:11:13;24.60;47.10
6439;DHT22;3252;52.540;13.290;2022-07-29T10:13:15;24.60;47.60
6439;DHT22;3252;52.540;13.290;2022-07-29T10:15:21;24.60;47.40
6439;DHT22;3252;52.540;13.290;2022-07-29T10:17:23;24.70;47.60
6439;DHT22;3252;52.540;13.290;2022-07-29T10:19:26;24.70;48.10
6439;DHT22;3252;52.540;13.290;2022-07-29T10:21:29;24.80;48.20
6439;DHT22;3252;52.540;13.290;2022-07-29T10:23:34;24.80;47.70
6439;DHT22;3252;52.540;13.290;2022-07-29T10:25:36;24.80;48.30
6439;DHT22;3252;52.540;13.290;2022-07-29T10:27:38;24.80;47.60
6439;DHT22;3252;52.540;13.290;2022-07-29T10:29:40;24.80;47.60
6439;DHT22;3252;52.540;13.290;2022-07-29T10:31:49;24.70;46.70
6439;DHT22;3252;52.540;13.290;2022-07-29T10:34:04;24.70;46.60
6439;DHT22;3252;52.540;13.290;2022-07-29T10:36:26;24.70;46.00
6439;DHT22;3252;52.540;13.290;2022-07-29T10:38:45;24.70;45.30
6439;DHT22;3252;52.540;13.290;2022-07-29T10:41:01;24.70;45.50
6439;DHT22;3252;52.540;13.290;2022-07-29T10:43:28;24.70;45.50
6439;DHT22;3252;52.540;13.290;2022-07-29T10:45:31;24.80;45.20
6439;DHT22;3252;52.540;13.290;2022-07-29T10:47:35;24.80;45.50
6439;DHT22;3252;52.540;13.290;2022-07-29T10:49:55;24.80;45.90
6439;DHT22;3252;52.540;13.290;2022-07-29T10:52:03;24.80;45.50
6439;DHT22;3252;52.540;13.290;2022-07-29T10:54:05;24.80;45.80
6439;DHT22;3252;52.540;13.290;2022-07-29T10:56:23;24.80;45.70
6439;DHT22;3252;52.540;13.290;2022-07-29T10:58:26;24.90;45.70
6439;DHT22;3252;52.540;13.290;2022-07-29T11:00:30;25.00;45.60
6439;DHT22;3252;52.540;13.290;2022-07-29T11:02:46;25.00;45.90
6439;DHT22;3252;52.540;13.290;2022-07-29T11:05:00;25.10;46.20
6439;DHT22;3252;52.540;13.290;2022-07-29T11:07:07;25.10;45.80
6439;DHT22;3252;52.540;13.290;2022-07-29T11:09:16;25.20;45.80
6439;DHT22;3252;52.540;13.290;2022-07-29T11:11:36;25.20;46.20
6439;DHT22;3252;52.540;13.290;2022-07-29T11:13:48;25.30;46.30
6439;DHT22;3252;52.540;13.290;2022-07-29T11:15:53;25.40;45.90
6439;DHT22;3252;52.540;13.290;2022-07-29T11:18:09;25.50;45.20
6439;DHT22;3252;52.540;13.290;2022-07-29T11:20:35;25.50;45.10
6439;DHT22;3252;52.540;13.290;2022-07-29T11:22:38;25.70;45.20
6439;DHT22;3252;52.540;13.290;2022-07-29T11:24:39;25.70;44.70
6439;DHT22;3252;52.540;13.290;2022-07-29T11:26:42;25.90;44.50
6439;DHT22;3252;52.540;13.290;2022-07-29T11:28:50;25.90;44.60
6439;DHT22;3252;52.540;13.290;2022-07-29T11:30:54;26.00;44.40
6439;DHT22;3252;52.540;13.290;2022-07-29T11:32:56;26.00;44.50
6439;DHT22;3252;52.540;13.290;2022-07-29T11:35:15;26.20;44.40
6439;DHT22;3252;52.540;13.290;2022-07-29T11:37:23;26.20;44.40
6439;DHT22;3252;52.540;13.290;2022-07-29T11:39:26;26.30;44.60
6439;DHT22;3252;52.540;13.290;2022-07-29T11:41:28;26.30;44.60
6439;DHT22;3252;52.540;13.290;2022-07-29T11:43:46;26.40;44.80
6439;DHT22;3252;52.540;13.290;2022-07-29T11:45:48;26.40;45.00
6439;DHT22;3252;52.540;13.290;2022-07-29T11:47:52;26.50;44.30
6439;DHT22;3252;52.540;13.290;2022-07-29T11:49:56;26.50;44.50
6439;DHT22;3252;52.540;13.290;2022-07-29T11:52:00;26.50;44.10
6439;DHT22;3252;52.540;13.290;2022-07-29T11:54:04;26.40;44.30
6439;DHT22;3252;52.540;13.290;2022-07-29T11:56:09;26.50;44.50
6439;DHT22;3252;52.540;13.290;2022-07-29T11:58:12;26.50;44.70
6439;DHT22;3252;52.540;13.290;2022-07-29T12:00:22;26.50;44.90
6439;DHT22;3252;52.540;13.290;2022-07-29T12:02:24;26.60;45.20
6439;DHT22;3252;52.540;13.290;2022-07-29T12:04:26;26.50;45.20
6439;DHT22;3252;52.540;13.290;2022-07-29T12:06:28;26.60;45.30
6439;DHT22;3252;52.540;13.290;2022-07-29T12:08:40;26.60;45.10
6439;DHT22;3252;52.540;13.290;2022-07-29T12:10:43;26.50;45.30
6439;DHT22;3252;52.540;13.290;2022-07-29T12:12:51;26.50;45.50
6439;DHT22;3252;52.540;13.290;2022-07-29T12:14:53;26.50;45.60
6439;DHT22;3252;52.540;13.290;2022-07-29T12:16:56;26.50;45.60
6439;DHT22;3252;52.540;13.290;2022-07-29T12:18:59;26.50;46.10
6439;DHT22;3252;52.540;13.290;2022-07-29T12:21:03;26.50;46.30
6439;DHT22;3252;52.540;13.290;2022-07-29T12:23:06;26.60;46.40
6439;DHT22;3252;52.540;13.290;2022-07-29T12:25:12;26.60;46.60
6439;DHT22;3252;52.540;13.290;2022-07-29T12:27:17;26.60;46.40
6439;DHT22;3252;52.540;13.290;2022-07-29T12:29:19;26.60;46.10
6439;DHT22;3252;52.540;13.290;2022-07-29T12:31:22;26.60;46.40
6439;DHT22;3252;52.540;13.290;2022-07-29T12:33:26;26.70;46.50
6439;DHT22;3252;52.540;13.290;2022-07-29T12:35:28;26.70;46.70
6439;DHT22;3252;52.540;13.290;2022-07-29T12:37:31;26.80;46.80
6439;DHT22;3252;52.540;13.290;2022-07-29T12:39:34;26.80;47.10
6439;DHT22;3252;52.540;13.290;2022-07-29T12:41:37;26.90;47.40
6439;DHT22;3252;52.540;13.290;2022-07-29T12:43:52;27.00;47.30
6439;DHT22;3252;52.540;13.290;2022-07-29T12:45:56;27.00;47.20
6439;DHT22;3252;52.540;13.290;2022-07-29T12:47:58;27.00;46.60
6439;DHT22;3252;52.540;13.290;2022-07-29T12:50:11;27.00;47.40
6439;DHT22;3252;52.540;13.290;2022-07-29T12:52:28;27.00;46.40
6439;DHT22;3252;52.540;13.290;2022-07-29T12:54:31;27.10;46.80
6439;DHT22;3252;52.540;13.290;2022-07-29T12:56:33;27.10;47.10
6439;DHT22;3252;52.540;13.290;2022-07-29T12:58:38;27.10;46.90
6439;DHT22;3252;52.540;13.290;2022-07-29T13:00:40;27.10;46.80
6439;DHT22;3252;52.540;13.290;2022-07-29T13:02:43;27.20;46.90
6439;DHT22;3252;52.540;13.290;2022-07-29T13:04:55;27.10;46.40
6439;DHT22;3252;52.540;13.290;2022-07-29T13:06:59;27.10;46.20
6439;DHT22;3252;52.540;13.290;2022-07-29T13:09:07;27.20;46.20
6439;DHT22;3252;52.540;13.290;2022-07-29T13:11:27;27.20;46.20
6439;DHT22;3252;52.540;13.290;2022-07-29T13:13:29;27.20;46.10
6439;DHT22;3252;52.540;13.290;2022-07-29T13:15:33;27.20;45.80
6439;DHT22;3252;52.540;13.290;2022-07-29T13:17:40;27.20;46.10
6439;DHT22;3252;52.540;13.290;2022-07-29T13:19:44;27.30;46.70
6439;DHT22;3252;52.540;13.290;2022-07-29T13:21:46;27.30;46.70